Friday, April 27, 2018, 2:42 AM EDT
Back to Local

KCAR, Caribou Municipal Airport

Location: Caribou, ME, United States Lat: 46.867
Local Time: 2:42 AM EDT ( 6:42 GMT) Lon: -68.017
Time Zone: US/Eastern Elev: 626 ft

Show me the last for .
Show Decoded

2018-04-27 00:46 METAR KCAR 270446Z AUTO 24008KT 10SM -RA BKN024 BKN038 OVC065 07/06 A2957 =
2018-04-26 23:21 METAR KCAR 270321Z AUTO 23007KT 10SM -RA FEW017 BKN041 OVC060 08/07 A2953 RMK
                 AO2 P0000 T00780067 =
2018-04-26 22:41 METAR KCAR 270241Z AUTO 24009KT 10SM -RA BKN019 BKN029 OVC037 08/07 A2952 RMK
                 AO2 P0001 T00830067 =
2018-04-26 18:27 METAR KCAR 262227Z AUTO 23007KT 9SM SCT004 BKN016 OVC021 11/09 A2944 RMK AO2
                 T01060094 =
2018-04-26 18:21 METAR KCAR 262221Z AUTO 22008KT 8SM BKN005 OVC014 11/09 A2944 =
2018-04-26 17:26 METAR KCAR 262126Z AUTO 21006KT 9SM -RA SCT005 BKN022 OVC070 11/10 A2943 =
2018-04-26 16:54 METAR KCAR 262054Z AUTO 21007KT 9SM -RA SCT004 BKN050 OVC070 11/10 A2942 RMK AO2
                 SLP967 P0006 60033 T01110100 57002 =
2018-04-26 16:23 METAR KCAR 262023Z AUTO 21005KT 5SM -RA BR BKN004 BKN009 OVC027 11/10 A2942 RMK
                 AO2 P0003 T01110100 =
2018-04-26 16:13 METAR KCAR 262013Z AUTO 21005KT 6SM -RA BR BKN005 OVC028 11/10 A2942 RMK AO2
                 P0003 T01110100 =
2018-04-26 16:01 METAR KCAR 262001Z AUTO 20007KT 4SM -RA BR FEW005 OVC032 12/10 A2942 RMK AO2
                 P0001 T01170100 =
2018-04-26 15:54 METAR KCAR 261954Z AUTO 19006KT 4SM -RA BR SCT005 BKN028 OVC035 12/11 A2942 RMK
                 AO2 SLP968 P0014 T01170106 =
2018-04-26 15:37 METAR KCAR 261937Z AUTO 20007KT 3SM -RA BR SCT005 BKN022 OVC044 12/11 A2942 =
2018-04-26 15:34 METAR KCAR 261934Z AUTO 20007KT 2SM RA BR SCT005 BKN010 OVC046 12/11 A2943 RMK
                 AO2 P0011 T01170106 =
2018-04-26 15:23 METAR KCAR 261923Z AUTO 19006KT 1 3/4SM +RA BR BKN006 OVC010 12/11 A2943 RMK AO2
                 P0006 T01220111 =
2018-04-26 15:12 METAR KCAR 261912Z AUTO 18008KT 4SM -RA BR SCT004 BKN008 OVC020 12/11 A2943 RMK
                 AO2 P0002 T01220111 =
2018-04-26 15:01 METAR KCAR 261901Z AUTO 14005KT 4SM -RA BR FEW003 BKN024 OVC047 12/11 A2942 RMK
                 AO2 P0001 T01220111 =
2018-04-26 14:54 METAR KCAR 261854Z AUTO 14006KT 3SM RA BR SCT006 BKN031 OVC047 12/11 A2943 RMK
                 AO2 SLP970 P0013 T01220111 =
2018-04-26 14:50 METAR KCAR 261850Z AUTO 13005KT 2 1/2SM RA BR SCT006 BKN035 OVC046 12/11 A2943
                 RMK AO2 P0012 =
2018-04-26 14:37 METAR KCAR 261837Z AUTO 12007KT 2 1/2SM RA BR FEW006 BKN025 OVC038 12/11 A2943 =
2018-04-26 14:04 METAR KCAR 261804Z AUTO 12006KT 4SM -RA BR FEW007 OVC011 12/11 A2945 RMK AO2
                 P0002 T01220111 =
2018-04-26 13:54 METAR KCAR 261754Z AUTO 12006KT 4SM -RA BR BKN007 OVC011 12/11 A2946 RMK AO2
                 SLP981 P0005 60006 T01220111 10128 20106 56026 =
2018-04-26 13:22 METAR KCAR 261722Z AUTO 13006KT 3SM -RA BR OVC005 12/11 A2948 =
2018-04-26 13:16 METAR KCAR 261716Z AUTO 13005KT 1 3/4SM -RA BR OVC005 12/11 A2949 RMK AO2 P0001
                 T01220111 =
2018-04-26 13:08 METAR KCAR 261708Z AUTO 12006KT 2SM -RA BR OVC005 12/11 A2949 RMK AO2 P0001
                 T01220111 =
2018-04-26 12:54 METAR KCAR 261654Z AUTO 14005KT 3SM -RA BR BKN005 OVC008 12/11 A2950 RMK AO2
                 RAB12 SLP995 P0001 T01220111 =
2018-04-26 12:38 METAR KCAR 261638Z AUTO 15007KT 3SM -RA BR BKN005 OVC010 12/11 A2951 =
2018-04-26 12:16 METAR KCAR 261616Z AUTO 16008KT 3SM -RA BR BKN006 OVC010 12/11 A2953 RMK AO2
                 RAB12 P0000 T01220111 =
2018-04-26 11:54 METAR KCAR 261554Z AUTO 14008KT 1 3/4SM BR OVC007 13/11 A2954 RMK AO2 SLP007
                 T01280111 =
2018-04-26 11:48 METAR KCAR 261548Z AUTO VRB06KT 2 1/2SM BR OVC005 12/11 A2954 RMK AO2 =
2018-04-26 10:54 METAR KCAR 261454Z AUTO 14008KT 10SM OVC007 12/11 A2956 RMK AO2 SLP016 60000
                 T01220106 58027 =
2018-04-26 09:54 METAR KCAR 261354Z AUTO 13007KT 10SM OVC007 12/10 A2959 RMK AO2 SLP026 T01170100
                 =
2018-04-26 08:54 METAR KCAR 261254Z AUTO 14009KT 10SM OVC007 11/09 A2962 RMK AO2 RAE49 SLP035
                 P0000 T01110094 =
2018-04-26 07:54 METAR KCAR 261154Z AUTO 15009KT 8SM -RA OVC007 11/09 A2964 RMK AO2 SLP043 P0006
                 60032 70076 T01060089 10106 20083 56016 =
2018-04-26 06:54 METAR KCAR 261054Z AUTO 16011KT 6SM -RA BR OVC008 10/09 A2966 RMK AO2 SLP049
                 P0005 T01000089 =
2018-04-26 05:54 METAR KCAR 260954Z AUTO 16011KT 5SM -RA BR OVC008 10/08 A2967 RMK AO2 CIG
                 006V011 SLP052 P0007 T01000083 =
2018-04-26 05:18 METAR KCAR 260918Z AUTO 15010KT 6SM -RA BR BKN009 OVC012 10/08 A2968 =
2018-04-26 04:54 METAR KCAR 260854Z AUTO 14011KT 5SM RA BR OVC010 10/08 A2969 RMK AO2 CIG 007V013
                 SLP058 P0006 60014 T01000083 56042 =
2018-04-26 04:40 METAR KCAR 260840Z AUTO 14010KT 6SM -RA BR OVC010 10/08 A2970 =
2018-04-26 03:54 METAR KCAR 260754Z AUTO 14007KT 7SM -RA OVC007 09/08 A2973 RMK AO2 CIG 004V011
                 SLP071 P0006 T00890078 =
2018-04-26 02:54 METAR KCAR 260654Z AUTO 11007KT 9SM -RA BKN006 OVC011 09/08 A2977 RMK AO2 CIG
                 003V008 SLP084 P0002 T00890078 =

Support USWX by starting your Amazon purchase here.